createdAt,value
2022-09-01T02:56:21.912Z,88.87
2022-09-01T06:57:00.666Z,73.84
2022-09-01T08:04:25.973Z,66.79
2022-09-01T08:23:42.319Z,63.8
2022-09-01T08:33:20.698Z,63.6
2022-09-01T08:52:36.054Z,62.05
2022-09-01T09:11:52.622Z,58.71
2022-09-01T10:00:07.983Z,48.03
2022-09-01T10:10:09.102Z,44.82
2022-09-01T10:19:52.643Z,44.74
2022-09-01T10:29:47.369Z,43.04
2022-09-01T10:39:09.682Z,44.52
2022-09-01T10:49:03.312Z,40.17
2022-09-01T11:08:17.229Z,38.62
2022-09-01T11:17:59.787Z,33.5
2022-09-01T11:37:20.415Z,34.49
2022-09-01T11:56:24.408Z,29.9
2022-09-01T12:06:04.499Z,35.39
2022-09-01T12:25:25.580Z,39.44
2022-09-01T12:35:11.443Z,39.05
2022-09-01T12:44:52.063Z,36.29
2022-09-01T12:54:31.951Z,34.07
2022-09-01T13:04:14.717Z,33.71
2022-09-01T13:13:54.917Z,31.77
2022-09-01T13:23:32.938Z,31.24
2022-09-01T13:33:22.808Z,31.8
2022-09-01T13:42:47.304Z,31.12
2022-09-01T13:52:22.729Z,31.76
2022-09-01T14:02:02.887Z,28
2022-09-01T14:11:42.063Z,27.44
2022-09-01T14:21:20.007Z,24.94
2022-09-01T14:40:44.094Z,25.12
2022-09-01T14:50:20.115Z,25.35
2022-09-01T14:59:50.936Z,25.82
2022-09-01T15:09:26.625Z,29.18
2022-09-01T15:28:46.040Z,25.98
2022-09-01T15:38:17.418Z,27.71
2022-09-01T15:57:12.381Z,29.81
2022-09-01T16:06:47.088Z,32.88
2022-09-01T16:16:21.602Z,33.98
2022-09-01T16:25:56.791Z,35.58
2022-09-01T16:35:32.368Z,36.9
2022-09-01T16:45:08.813Z,38.61
2022-09-01T16:54:45.665Z,39.04
2022-09-01T17:04:21.943Z,39.2
2022-09-01T17:13:58.145Z,39.79
2022-09-01T17:23:34.723Z,41.52
2022-09-01T17:33:17.715Z,41.48
2022-09-01T17:52:24.279Z,45.34
2022-09-01T18:02:00.727Z,46.3
2022-09-01T18:11:37.235Z,47.61
2022-09-01T18:30:53.434Z,51.26
2022-09-01T18:59:39.883Z,59.37
2022-09-01T19:09:16.451Z,60.43
2022-09-01T19:18:53.792Z,61.88
2022-09-01T19:28:30.477Z,62.61
2022-09-01T19:38:07.204Z,64.24
2022-09-01T19:47:44.219Z,63.94
2022-09-01T20:06:58.099Z,66.08
2022-09-01T20:16:35.350Z,66.2
2022-09-01T20:26:12.725Z,67.55
2022-09-01T20:35:49.763Z,68.6
2022-09-01T20:45:26.611Z,68.76
2022-09-01T20:55:03.675Z,69.45
2022-09-01T21:04:40.964Z,71.03
2022-09-01T21:14:19.375Z,71.13
2022-09-01T21:23:54.724Z,72.04
2022-09-01T21:33:31.438Z,72.58
2022-09-01T21:43:08.387Z,73.09
2022-09-01T21:52:45.482Z,74.39
2022-09-01T22:02:22.285Z,74.8
2022-09-01T22:11:59.425Z,75.71
2022-09-01T22:21:36.256Z,76.73
2022-09-01T22:31:13.069Z,78.32
2022-09-01T22:50:27.165Z,79.42
2022-09-01T23:00:04.664Z,79.51
2022-09-01T23:09:40.990Z,79.86
2022-09-01T23:19:17.838Z,81.89
2022-09-01T23:28:54.749Z,82.44
2022-09-01T23:38:31.904Z,82.23
2022-09-01T23:48:08.088Z,83.63
2022-09-01T23:57:45.242Z,83.58
